sensor_id;sensor_type;location;lat;lon;timestamp;pressure;altitude;pressure_sealevel;temperature;humidity
56668;BME280;42542;48.360;10.958;2023-04-23T00:01:06;95558.66;;;13.65;77.48
56668;BME280;42542;48.360;10.958;2023-04-23T00:04:10;95558.63;;;13.58;77.46
56668;BME280;42542;48.360;10.958;2023-04-23T00:07:15;95554.88;;;13.53;77.60
56668;BME280;42542;48.360;10.958;2023-04-23T00:10:18;95561.63;;;13.49;78.18
56668;BME280;42542;48.360;10.958;2023-04-23T00:13:20;95545.28;;;13.44;78.41
56668;BME280;42542;48.360;10.958;2023-04-23T00:16:27;95542.38;;;13.39;78.49
56668;BME280;42542;48.360;10.958;2023-04-23T00:19:29;95538.81;;;13.32;79.14
56668;BME280;42542;48.360;10.958;2023-04-23T00:22:33;95540.66;;;13.31;79.19
56668;BME280;42542;48.360;10.958;2023-04-23T00:25:36;95537.09;;;13.24;79.41
56668;BME280;42542;48.360;10.958;2023-04-23T00:28:39;95536.28;;;13.23;79.53
56668;BME280;42542;48.360;10.958;2023-04-23T00:31:40;95537.66;;;13.19;79.82
56668;BME280;42542;48.360;10.958;2023-04-23T00:34:43;95532.72;;;13.16;79.93
56668;BME280;42542;48.360;10.958;2023-04-23T00:37:49;95527.88;;;13.12;79.99
56668;BME280;42542;48.360;10.958;2023-04-23T00:40:51;95533.81;;;13.07;80.40
56668;BME280;42542;48.360;10.958;2023-04-23T00:43:53;95530.50;;;13.05;80.44
56668;BME280;42542;48.360;10.958;2023-04-23T00:46:56;95527.38;;;13.02;80.55
56668;BME280;42542;48.360;10.958;2023-04-23T00:49:58;95528.41;;;13.01;80.56
56668;BME280;42542;48.360;10.958;2023-04-23T00:53:04;95534.97;;;12.98;80.92
56668;BME280;42542;48.360;10.958;2023-04-23T00:56:09;95528.16;;;12.96;80.98
56668;BME280;42542;48.360;10.958;2023-04-23T00:59:14;95529.38;;;12.93;81.22
56668;BME280;42542;48.360;10.958;2023-04-23T01:02:19;95535.75;;;12.92;81.28
56668;BME280;42542;48.360;10.958;2023-04-23T01:05:22;95536.97;;;12.89;80.96
56668;BME280;42542;48.360;10.958;2023-04-23T01:08:24;95531.16;;;12.86;81.05
56668;BME280;42542;48.360;10.958;2023-04-23T01:11:28;95530.72;;;12.82;81.53
56668;BME280;42542;48.360;10.958;2023-04-23T01:14:32;95532.19;;;12.85;81.45
56668;BME280;42542;48.360;10.958;2023-04-23T01:17:33;95542.09;;;12.84;81.47
56668;BME280;42542;48.360;10.958;2023-04-23T01:20:36;95541.44;;;12.82;81.63
56668;BME280;42542;48.360;10.958;2023-04-23T01:23:40;95534.63;;;12.80;81.61
56668;BME280;42542;48.360;10.958;2023-04-23T01:26:47;95543.50;;;12.80;81.69
56668;BME280;42542;48.360;10.958;2023-04-23T01:29:49;95542.66;;;12.80;81.79
56668;BME280;42542;48.360;10.958;2023-04-23T01:32:53;95537.50;;;12.78;81.96
56668;BME280;42542;48.360;10.958;2023-04-23T01:35:57;95539.34;;;12.78;81.82
56668;BME280;42542;48.360;10.958;2023-04-23T01:39:00;95542.22;;;12.76;82.13
56668;BME280;42542;48.360;10.958;2023-04-23T01:42:05;95537.88;;;12.75;81.93
56668;BME280;42542;48.360;10.958;2023-04-23T01:45:09;95531.06;;;12.73;82.07
56668;BME280;42542;48.360;10.958;2023-04-23T01:48:11;95529.75;;;12.69;81.84
56668;BME280;42542;48.360;10.958;2023-04-23T01:51:13;95531.59;;;12.68;82.74
56668;BME280;42542;48.360;10.958;2023-04-23T01:54:16;95535.94;;;12.69;82.09
56668;BME280;42542;48.360;10.958;2023-04-23T01:57:17;95532.00;;;12.65;82.52
56668;BME280;42542;48.360;10.958;2023-04-23T02:00:31;95541.06;;;12.64;82.49
56668;BME280;42542;48.360;10.958;2023-04-23T02:03:36;95551.59;;;12.66;82.71
56668;BME280;42542;48.360;10.958;2023-04-23T02:06:42;95546.44;;;12.64;82.80
56668;BME280;42542;48.360;10.958;2023-04-23T02:09:46;95542.91;;;12.64;83.52
56668;BME280;42542;48.360;10.958;2023-04-23T02:12:48;95536.72;;;12.63;83.66
56668;BME280;42542;48.360;10.958;2023-04-23T02:15:50;95538.31;;;12.58;83.76
56668;BME280;42542;48.360;10.958;2023-04-23T02:18:54;95540.59;;;12.61;83.70
56668;BME280;42542;48.360;10.958;2023-04-23T02:21:56;95543.50;;;12.59;84.17
56668;BME280;42542;48.360;10.958;2023-04-23T02:25:00;95540.00;;;12.59;84.09
56668;BME280;42542;48.360;10.958;2023-04-23T02:28:05;95530.03;;;12.52;84.28
56668;BME280;42542;48.360;10.958;2023-04-23T02:31:09;95529.19;;;12.52;83.95
56668;BME280;42542;48.360;10.958;2023-04-23T02:34:13;95534.16;;;12.55;84.22
56668;BME280;42542;48.360;10.958;2023-04-23T02:37:15;95541.38;;;12.55;84.40
56668;BME280;42542;48.360;10.958;2023-04-23T02:40:17;95529.75;;;12.47;84.20
56668;BME280;42542;48.360;10.958;2023-04-23T02:43:19;95531.41;;;12.48;84.33
56668;BME280;42542;48.360;10.958;2023-04-23T02:46:22;95543.63;;;12.51;84.97
56668;BME280;42542;48.360;10.958;2023-04-23T02:49:24;95547.50;;;12.48;85.36
56668;BME280;42542;48.360;10.958;2023-04-23T02:52:27;95558.03;;;12.50;86.26
56668;BME280;42542;48.360;10.958;2023-04-23T02:55:30;95559.06;;;12.49;86.69
56668;BME280;42542;48.360;10.958;2023-04-23T02:58:33;95571.63;;;12.48;87.90
56668;BME280;42542;48.360;10.958;2023-04-23T03:01:36;95573.66;;;12.46;88.32
56668;BME280;42542;48.360;10.958;2023-04-23T03:04:44;95577.38;;;12.45;88.69
56668;BME280;42542;48.360;10.958;2023-04-23T03:07:46;95584.59;;;12.45;89.22
56668;BME280;42542;48.360;10.958;2023-04-23T03:10:49;95577.56;;;12.44;89.33
56668;BME280;42542;48.360;10.958;2023-04-23T03:13:55;95581.44;;;12.41;89.77
56668;BME280;42542;48.360;10.958;2023-04-23T03:16:58;95577.31;;;12.39;89.46
56668;BME280;42542;48.360;10.958;2023-04-23T03:20:05;95582.00;;;12.37;89.68
56668;BME280;42542;48.360;10.958;2023-04-23T03:23:11;95581.38;;;12.35;89.51
56668;BME280;42542;48.360;10.958;2023-04-23T03:26:13;95586.47;;;12.30;89.92
56668;BME280;42542;48.360;10.958;2023-04-23T03:29:15;95590.81;;;12.31;89.77
56668;BME280;42542;48.360;10.958;2023-04-23T03:32:20;95592.66;;;12.30;89.88
56668;BME280;42542;48.360;10.958;2023-04-23T03:35:24;95587.47;;;12.29;90.17
56668;BME280;42542;48.360;10.958;2023-04-23T03:38:32;95588.69;;;12.26;90.24
56668;BME280;42542;48.360;10.958;2023-04-23T03:41:37;95596.72;;;12.26;90.67
56668;BME280;42542;48.360;10.958;2023-04-23T03:44:41;95596.91;;;12.25;90.57
56668;BME280;42542;48.360;10.958;2023-04-23T03:47:44;95596.47;;;12.21;90.60
56668;BME280;42542;48.360;10.958;2023-04-23T03:50:47;95597.28;;;12.22;91.15
56668;BME280;42542;48.360;10.958;2023-04-23T03:54:16;95603.00;;;12.19;91.08
56668;BME280;42542;48.360;10.958;2023-04-23T03:57:37;95599.50;;;12.18;91.94
56668;BME280;42542;48.360;10.958;2023-04-23T04:00:57;95604.03;;;12.18;92.11
56668;BME280;42542;48.360;10.958;2023-04-23T04:03:58;95604.41;;;12.15;91.82
56668;BME280;42542;48.360;10.958;2023-04-23T04:07:01;95602.94;;;12.12;91.83
56668;BME280;42542;48.360;10.958;2023-04-23T04:10:07;95606.34;;;12.06;92.87
56668;BME280;42542;48.360;10.958;2023-04-23T04:13:10;95615.88;;;12.08;93.01
56668;BME280;42542;48.360;10.958;2023-04-23T04:16:11;95611.06;;;12.04;93.49
56668;BME280;42542;48.360;10.958;2023-04-23T04:19:14;95613.94;;;12.02;94.14
56668;BME280;42542;48.360;10.958;2023-04-23T04:22:16;95607.94;;;12.00;94.03
56668;BME280;42542;48.360;10.958;2023-04-23T04:25:19;95609.31;;;11.96;94.63
56668;BME280;42542;48.360;10.958;2023-04-23T04:28:25;95613.81;;;11.96;94.81
56668;BME280;42542;48.360;10.958;2023-04-23T04:31:32;95617.25;;;11.90;95.58
56668;BME280;42542;48.360;10.958;2023-04-23T04:34:35;95629.63;;;11.91;95.77
56668;BME280;42542;48.360;10.958;2023-04-23T04:37:39;95629.53;;;11.84;96.33
56668;BME280;42542;48.360;10.958;2023-04-23T04:40:42;95642.09;;;11.84;97.77
56668;BME280;42542;48.360;10.958;2023-04-23T04:43:44;95646.00;;;11.81;97.57
56668;BME280;42542;48.360;10.958;2023-04-23T04:46:47;95639.97;;;11.79;97.32
56668;BME280;42542;48.360;10.958;2023-04-23T04:49:49;95641.00;;;11.78;97.10
56668;BME280;42542;48.360;10.958;2023-04-23T04:52:52;95642.00;;;11.77;97.39
56668;BME280;42542;48.360;10.958;2023-04-23T04:55:54;95648.06;;;11.71;98.30
56668;BME280;42542;48.360;10.958;2023-04-23T04:58:56;95647.22;;;11.70;98.09
56668;BME280;42542;48.360;10.958;2023-04-23T05:01:58;95649.91;;;11.70;98.89
56668;BME280;42542;48.360;10.958;2023-04-23T05:05:01;95648.78;;;11.65;98.27
56668;BME280;42542;48.360;10.958;2023-04-23T05:08:04;95654.97;;;11.65;98.26
56668;BME280;42542;48.360;10.958;2023-04-23T05:11:09;95660.69;;;11.62;99.42
56668;BME280;42542;48.360;10.958;2023-04-23T05:14:14;95654.66;;;11.60;99.55
56668;BME280;42542;48.360;10.958;2023-04-23T05:17:15;95660.03;;;11.60;99.20
56668;BME280;42542;48.360;10.958;2023-04-23T05:20:20;95654.03;;;11.58;100.00
56668;BME280;42542;48.360;10.958;2023-04-23T05:23:22;95650.72;;;11.56;100.00
56668;BME280;42542;48.360;10.958;2023-04-23T05:26:24;95655.88;;;11.58;100.00
56668;BME280;42542;48.360;10.958;2023-04-23T05:29:25;95655.06;;;11.57;100.00
56668;BME280;42542;48.360;10.958;2023-04-23T05:32:28;95652.56;;;11.56;100.00
56668;BME280;42542;48.360;10.958;2023-04-23T05:35:29;95665.09;;;11.55;100.00
56668;BME280;42542;48.360;10.958;2023-04-23T05:38:33;95654.56;;;11.54;100.00
56668;BME280;42542;48.360;10.958;2023-04-23T05:41:34;95648.59;;;11.52;100.00
56668;BME280;42542;48.360;10.958;2023-04-23T05:44:36;95645.53;;;11.55;100.00
56668;BME280;42542;48.360;10.958;2023-04-23T05:47:39;95639.50;;;11.53;100.00
56668;BME280;42542;48.360;10.958;2023-04-23T05:50:41;95637.69;;;11.53;100.00
56668;BME280;42542;48.360;10.958;2023-04-23T05:53:43;95651.72;;;11.55;100.00
56668;BME280;42542;48.360;10.958;2023-04-23T05:56:46;95650.06;;;11.54;100.00
56668;BME280;42542;48.360;10.958;2023-04-23T05:59:48;95647.38;;;11.54;100.00
56668;BME280;42542;48.360;10.958;2023-04-23T06:02:50;95652.72;;;11.54;100.00
56668;BME280;42542;48.360;10.958;2023-04-23T06:05:52;95662.59;;;11.54;100.00
56668;BME280;42542;48.360;10.958;2023-04-23T06:08:54;95660.94;;;11.53;100.00
56668;BME280;42542;48.360;10.958;2023-04-23T06:11:56;95663.44;;;11.54;100.00
56668;BME280;42542;48.360;10.958;2023-04-23T06:14:59;95653.56;;;11.55;100.00
56668;BME280;42542;48.360;10.958;2023-04-23T06:18:05;95661.75;;;11.53;100.00
56668;BME280;42542;48.360;10.958;2023-04-23T06:21:12;95657.44;;;11.52;100.00
56668;BME280;42542;48.360;10.958;2023-04-23T06:24:16;95651.06;;;11.53;100.00
56668;BME280;42542;48.360;10.958;2023-04-23T06:27:25;95655.41;;;11.54;100.00
56668;BME280;42542;48.360;10.958;2023-04-23T06:30:39;95653.75;;;11.53;100.00
56668;BME280;42542;48.360;10.958;2023-04-23T06:33:46;95646.53;;;11.54;100.00
56668;BME280;42542;48.360;10.958;2023-04-23T06:36:50;95656.91;;;11.57;100.00
56668;BME280;42542;48.360;10.958;2023-04-23T06:39:53;95653.84;;;11.60;100.00
56668;BME280;42542;48.360;10.958;2023-04-23T06:42:55;95649.97;;;11.62;100.00
56668;BME280;42542;48.360;10.958;2023-04-23T06:46:19;95641.78;;;11.64;100.00
56668;BME280;42542;48.360;10.958;2023-04-23T06:49:23;95635.84;;;11.68;100.00
56668;BME280;42542;48.360;10.958;2023-04-23T06:52:26;95627.66;;;11.70;100.00
56668;BME280;42542;48.360;10.958;2023-04-23T06:55:29;95630.16;;;11.71;100.00
56668;BME280;42542;48.360;10.958;2023-04-23T06:58:32;95634.34;;;11.74;100.00
56668;BME280;42542;48.360;10.958;2023-04-23T07:01:43;95625.09;;;11.77;100.00
56668;BME280;42542;48.360;10.958;2023-04-23T07:04:46;95618.56;;;11.79;100.00
56668;BME280;42542;48.360;10.958;2023-04-23T07:07:51;95616.53;;;11.81;100.00
56668;BME280;42542;48.360;10.958;2023-04-23T07:10:57;95615.69;;;11.81;100.00
56668;BME280;42542;48.360;10.958;2023-04-23T07:13:59;95618.81;;;11.84;100.00
56668;BME280;42542;48.360;10.958;2023-04-23T07:17:04;95613.47;;;11.84;100.00
56668;BME280;42542;48.360;10.958;2023-04-23T07:20:08;95620.84;;;11.82;100.00
56668;BME280;42542;48.360;10.958;2023-04-23T07:23:10;95614.47;;;11.83;100.00
56668;BME280;42542;48.360;10.958;2023-04-23T07:26:14;95618.81;;;11.84;100.00
56668;BME280;42542;48.360;10.958;2023-04-23T07:29:19;95613.13;;;11.87;100.00
56668;BME280;42542;48.360;10.958;2023-04-23T07:32:25;95614.41;;;11.91;100.00
56668;BME280;42542;48.360;10.958;2023-04-23T07:35:32;95610.53;;;11.94;100.00
56668;BME280;42542;48.360;10.958;2023-04-23T07:38:40;95614.66;;;11.96;100.00
56668;BME280;42542;48.360;10.958;2023-04-23T07:41:43;95608.94;;;11.99;100.00
56668;BME280;42542;48.360;10.958;2023-04-23T07:44:45;95605.44;;;11.99;100.00
56668;BME280;42542;48.360;10.958;2023-04-23T07:47:49;95612.53;;;12.06;100.00
56668;BME280;42542;48.360;10.958;2023-04-23T07:50:51;95605.59;;;12.12;100.00
56668;BME280;42542;48.360;10.958;2023-04-23T07:53:55;95600.72;;;12.16;100.00
56668;BME280;42542;48.360;10.958;2023-04-23T07:56:59;95608.44;;;12.25;100.00
56668;BME280;42542;48.360;10.958;2023-04-23T08:00:00;95612.88;;;12.33;100.00
56668;BME280;42542;48.360;10.958;2023-04-23T08:03:12;95616.47;;;12.40;100.00
56668;BME280;42542;48.360;10.958;2023-04-23T08:06:17;95609.72;;;12.44;100.00
56668;BME280;42542;48.360;10.958;2023-04-23T08:09:19;95603.44;;;12.51;100.00
56668;BME280;42542;48.360;10.958;2023-04-23T08:12:21;95595.63;;;12.57;100.00
56668;BME280;42542;48.360;10.958;2023-04-23T08:15:23;95600.88;;;12.65;100.00
56668;BME280;42542;48.360;10.958;2023-04-23T08:18:25;95605.31;;;12.72;100.00
56668;BME280;42542;48.360;10.958;2023-04-23T08:21:27;95608.06;;;12.79;100.00
56668;BME280;42542;48.360;10.958;2023-04-23T08:24:33;95595.72;;;12.84;100.00
56668;BME280;42542;48.360;10.958;2023-04-23T08:27:38;95591.25;;;12.91;100.00
56668;BME280;42542;48.360;10.958;2023-04-23T08:30:39;95580.34;;;12.93;100.00
56668;BME280;42542;48.360;10.958;2023-04-23T08:33:42;95595.28;;;13.02;100.00
56668;BME280;42542;48.360;10.958;2023-04-23T08:36:45;95597.28;;;13.15;100.00
56668;BME280;42542;48.360;10.958;2023-04-23T08:39:49;95583.34;;;13.26;100.00
56668;BME280;42542;48.360;10.958;2023-04-23T08:43:05;95590.88;;;13.37;100.00
56668;BME280;42542;48.360;10.958;2023-04-23T08:46:11;95589.50;;;13.48;100.00
56668;BME280;42542;48.360;10.958;2023-04-23T08:49:15;95584.19;;;13.54;100.00
56668;BME280;42542;48.360;10.958;2023-04-23T08:52:22;95578.47;;;13.64;100.00
56668;BME280;42542;48.360;10.958;2023-04-23T08:55:25;95585.34;;;13.73;99.24
56668;BME280;42542;48.360;10.958;2023-04-23T08:58:31;95580.22;;;13.78;98.50
56668;BME280;42542;48.360;10.958;2023-04-23T09:01:37;95573.63;;;13.81;97.53
56668;BME280;42542;48.360;10.958;2023-04-23T09:04:41;95573.47;;;13.89;98.38
56668;BME280;42542;48.360;10.958;2023-04-23T09:07:46;95570.41;;;13.98;97.63
56668;BME280;42542;48.360;10.958;2023-04-23T09:10:51;95577.28;;;14.07;96.85
56668;BME280;42542;48.360;10.958;2023-04-23T09:13:55;95560.16;;;14.15;97.17
56668;BME280;42542;48.360;10.958;2023-04-23T09:16:57;95558.56;;;14.27;96.80
56668;BME280;42542;48.360;10.958;2023-04-23T09:20:02;95556.31;;;14.31;93.94
56668;BME280;42542;48.360;10.958;2023-04-23T09:23:07;95550.75;;;14.32;94.21
56668;BME280;42542;48.360;10.958;2023-04-23T09:26:19;95543.56;;;14.46;93.55
56668;BME280;42542;48.360;10.958;2023-04-23T09:29:27;95538.22;;;14.59;93.33
56668;BME280;42542;48.360;10.958;2023-04-23T09:32:37;95531.84;;;14.73;92.89
56668;BME280;42542;48.360;10.958;2023-04-23T09:35:41;95533.50;;;14.81;91.74
56668;BME280;42542;48.360;10.958;2023-04-23T09:38:46;95543.06;;;14.90;90.58
56668;BME280;42542;48.360;10.958;2023-04-23T09:41:52;95539.75;;;14.95;89.24
56668;BME280;42542;48.360;10.958;2023-04-23T09:45:01;95537.47;;;14.98;89.77
56668;BME280;42542;48.360;10.958;2023-04-23T09:48:09;95529.59;;;15.03;90.02
56668;BME280;42542;48.360;10.958;2023-04-23T09:51:42;95524.22;;;15.10;89.16
56668;BME280;42542;48.360;10.958;2023-04-23T09:54:44;95511.78;;;15.15;89.43
56668;BME280;42542;48.360;10.958;2023-04-23T09:57:53;95512.41;;;15.24;88.64
56668;BME280;42542;48.360;10.958;2023-04-23T10:01:08;95503.50;;;15.37;87.74
56668;BME280;42542;48.360;10.958;2023-04-23T10:04:17;95500.78;;;15.43;86.54
56668;BME280;42542;48.360;10.958;2023-04-23T10:07:21;95509.09;;;15.48;85.81
56668;BME280;42542;48.360;10.958;2023-04-23T10:10:30;95505.59;;;15.54;84.06
56668;BME280;42542;48.360;10.958;2023-04-23T10:13:46;95493.34;;;15.58;83.76
56668;BME280;42542;48.360;10.958;2023-04-23T10:17:03;95498.50;;;15.67;83.78
56668;BME280;42542;48.360;10.958;2023-04-23T10:20:09;95502.84;;;15.74;84.29
56668;BME280;42542;48.360;10.958;2023-04-23T10:23:25;95503.00;;;15.86;85.37
56668;BME280;42542;48.360;10.958;2023-04-23T10:26:31;95499.25;;;15.93;83.25
56668;BME280;42542;48.360;10.958;2023-04-23T10:29:34;95491.75;;;16.02;82.54
56668;BME280;42542;48.360;10.958;2023-04-23T10:32:45;95496.50;;;16.07;78.46
56668;BME280;42542;48.360;10.958;2023-04-23T10:35:56;95491.31;;;16.12;78.51
56668;BME280;42542;48.360;10.958;2023-04-23T10:39:01;95494.81;;;16.19;77.72
56668;BME280;42542;48.360;10.958;2023-04-23T10:42:15;95486.06;;;16.23;76.74
56668;BME280;42542;48.360;10.958;2023-04-23T10:45:18;95487.28;;;16.34;76.94
56668;BME280;42542;48.360;10.958;2023-04-23T10:48:49;95480.56;;;16.43;74.36
56668;BME280;42542;48.360;10.958;2023-04-23T10:55:25;95484.28;;;16.49;70.55
56668;BME280;42542;48.360;10.958;2023-04-23T10:58:48;95474.28;;;16.56;69.48
56668;BME280;42542;48.360;10.958;2023-04-23T11:01:51;95470.31;;;16.58;70.05
56668;BME280;42542;48.360;10.958;2023-04-23T11:04:54;95467.13;;;16.74;70.67
56668;BME280;42542;48.360;10.958;2023-04-23T11:08:07;95462.72;;;16.80;70.28
56668;BME280;42542;48.360;10.958;2023-04-23T11:11:41;95453.31;;;16.89;68.49
56668;BME280;42542;48.360;10.958;2023-04-23T11:20:57;95442.81;;;17.06;70.55
56668;BME280;42542;48.360;10.958;2023-04-23T11:24:11;95440.63;;;17.14;69.28
56668;BME280;42542;48.360;10.958;2023-04-23T11:27:16;95431.88;;;17.19;68.65
56668;BME280;42542;48.360;10.958;2023-04-23T11:30:27;95425.38;;;17.27;66.88
56668;BME280;42542;48.360;10.958;2023-04-23T11:33:30;95429.13;;;17.26;66.51
56668;BME280;42542;48.360;10.958;2023-04-23T11:36:32;95430.09;;;17.31;66.39
56668;BME280;42542;48.360;10.958;2023-04-23T11:39:34;95415.84;;;17.24;65.07
56668;BME280;42542;48.360;10.958;2023-04-23T11:42:44;95425.75;;;17.30;66.44
56668;BME280;42542;48.360;10.958;2023-04-23T11:45:48;95418.84;;;17.34;66.30
56668;BME280;42542;48.360;10.958;2023-04-23T11:48:53;95416.09;;;17.41;65.90
56668;BME280;42542;48.360;10.958;2023-04-23T11:51:58;95410.06;;;17.39;64.20
56668;BME280;42542;48.360;10.958;2023-04-23T11:55:06;95392.81;;;17.40;63.57
56668;BME280;42542;48.360;10.958;2023-04-23T11:58:08;95384.84;;;17.45;64.51
56668;BME280;42542;48.360;10.958;2023-04-23T12:01:11;95380.44;;;17.50;64.88
56668;BME280;42542;48.360;10.958;2023-04-23T12:04:28;95379.06;;;17.60;62.26
56668;BME280;42542;48.360;10.958;2023-04-23T12:07:32;95377.88;;;17.55;63.29
56668;BME280;42542;48.360;10.958;2023-04-23T12:10:58;95375.41;;;17.54;61.82
56668;BME280;42542;48.360;10.958;2023-04-23T12:14:03;95370.00;;;17.54;63.19
56668;BME280;42542;48.360;10.958;2023-04-23T12:17:10;95375.19;;;17.55;64.24
56668;BME280;42542;48.360;10.958;2023-04-23T12:20:18;95375.56;;;17.59;62.36
56668;BME280;42542;48.360;10.958;2023-04-23T12:23:28;95362.81;;;17.48;62.58
56668;BME280;42542;48.360;10.958;2023-04-23T12:26:30;95364.91;;;17.46;62.88
56668;BME280;42542;48.360;10.958;2023-04-23T12:29:34;95359.97;;;17.43;61.71
56668;BME280;42542;48.360;10.958;2023-04-23T12:32:36;95354.59;;;17.36;61.75
56668;BME280;42542;48.360;10.958;2023-04-23T12:35:44;95354.09;;;17.46;62.68
56668;BME280;42542;48.360;10.958;2023-04-23T12:38:47;95352.75;;;17.55;63.77
56668;BME280;42542;48.360;10.958;2023-04-23T12:42:08;95348.47;;;17.66;63.17
56668;BME280;42542;48.360;10.958;2023-04-23T12:45:13;95341.28;;;17.78;63.88
56668;BME280;42542;48.360;10.958;2023-04-23T12:48:18;95342.84;;;17.85;62.61
56668;BME280;42542;48.360;10.958;2023-04-23T12:51:20;95340.03;;;17.92;62.39
56668;BME280;42542;48.360;10.958;2023-04-23T12:54:24;95341.81;;;17.98;61.51
56668;BME280;42542;48.360;10.958;2023-04-23T12:57:28;95334.22;;;18.07;61.57
56668;BME280;42542;48.360;10.958;2023-04-23T13:00:30;95334.94;;;18.14;61.10
56668;BME280;42542;48.360;10.958;2023-04-23T13:03:32;95319.22;;;18.22;61.92
56668;BME280;42542;48.360;10.958;2023-04-23T13:06:35;95326.97;;;18.30;62.43
56668;BME280;42542;48.360;10.958;2023-04-23T13:09:36;95321.94;;;18.34;62.17
56668;BME280;42542;48.360;10.958;2023-04-23T13:12:39;95311.13;;;18.34;61.58
56668;BME280;42542;48.360;10.958;2023-04-23T13:15:41;95300.53;;;18.44;63.20
56668;BME280;42542;48.360;10.958;2023-04-23T13:18:44;95293.31;;;18.68;62.43
56668;BME280;42542;48.360;10.958;2023-04-23T13:21:46;95282.25;;;18.69;59.96
56668;BME280;42542;48.360;10.958;2023-04-23T13:24:48;95270.13;;;18.84;59.51
56668;BME280;42542;48.360;10.958;2023-04-23T13:27:50;95272.09;;;19.11;60.63
56668;BME280;42542;48.360;10.958;2023-04-23T13:30:54;95263.69;;;19.36;58.40
56668;BME280;42542;48.360;10.958;2023-04-23T13:34:02;95255.25;;;19.61;57.71
56668;BME280;42542;48.360;10.958;2023-04-23T13:37:09;95256.63;;;19.75;57.35
56668;BME280;42542;48.360;10.958;2023-04-23T13:40:22;95251.44;;;20.02;56.45
56668;BME280;42542;48.360;10.958;2023-04-23T13:43:26;95242.00;;;20.21;55.75
56668;BME280;42542;48.360;10.958;2023-04-23T13:46:36;95239.00;;;20.51;56.17
56668;BME280;42542;48.360;10.958;2023-04-23T13:49:39;95234.38;;;20.69;52.47
56668;BME280;42542;48.360;10.958;2023-04-23T13:52:42;95227.13;;;20.74;51.48
56668;BME280;42542;48.360;10.958;2023-04-23T13:55:54;95219.53;;;20.76;51.69
56668;BME280;42542;48.360;10.958;2023-04-23T13:59:00;95219.81;;;20.96;51.66
56668;BME280;42542;48.360;10.958;2023-04-23T14:02:07;95210.31;;;21.16;52.03
56668;BME280;42542;48.360;10.958;2023-04-23T14:05:13;95195.25;;;21.25;51.55
56668;BME280;42542;48.360;10.958;2023-04-23T14:08:16;95203.56;;;21.40;50.99
56668;BME280;42542;48.360;10.958;2023-04-23T14:11:19;95195.69;;;21.38;50.12
56668;BME280;42542;48.360;10.958;2023-04-23T14:14:29;95188.91;;;21.41;50.36
56668;BME280;42542;48.360;10.958;2023-04-23T14:17:36;95191.94;;;21.45;50.35
56668;BME280;42542;48.360;10.958;2023-04-23T14:20:44;95193.72;;;21.34;49.74
56668;BME280;42542;48.360;10.958;2023-04-23T14:26:51;95189.63;;;20.93;50.13
56668;BME280;42542;48.360;10.958;2023-04-23T14:30:01;95177.09;;;20.70;50.55
56668;BME280;42542;48.360;10.958;2023-04-23T14:33:11;95179.34;;;20.56;51.39
56668;BME280;42542;48.360;10.958;2023-04-23T14:36:15;95170.56;;;20.49;51.93
56668;BME280;42542;48.360;10.958;2023-04-23T14:39:21;95170.78;;;20.48;51.81
56668;BME280;42542;48.360;10.958;2023-04-23T14:42:29;95163.16;;;20.45;51.55
56668;BME280;42542;48.360;10.958;2023-04-23T14:45:34;95163.66;;;20.42;51.17
56668;BME280;42542;48.360;10.958;2023-04-23T14:48:37;95157.91;;;20.38;52.01
56668;BME280;42542;48.360;10.958;2023-04-23T14:51:43;95158.47;;;20.40;51.86
56668;BME280;42542;48.360;10.958;2023-04-23T14:54:51;95157.81;;;20.33;51.44
56668;BME280;42542;48.360;10.958;2023-04-23T14:57:58;95144.81;;;20.35;52.43
56668;BME280;42542;48.360;10.958;2023-04-23T15:01:03;95151.06;;;20.36;53.03
56668;BME280;42542;48.360;10.958;2023-04-23T15:04:09;95140.81;;;20.38;53.60
56668;BME280;42542;48.360;10.958;2023-04-23T15:07:23;95132.47;;;20.44;54.04
56668;BME280;42542;48.360;10.958;2023-04-23T15:10:26;95125.38;;;20.60;54.36
56668;BME280;42542;48.360;10.958;2023-04-23T15:13:42;95123.63;;;20.92;54.09
56668;BME280;42542;48.360;10.958;2023-04-23T15:16:56;95113.09;;;21.18;53.11
56668;BME280;42542;48.360;10.958;2023-04-23T15:20:05;95113.81;;;21.35;52.28
56668;BME280;42542;48.360;10.958;2023-04-23T15:23:08;95112.84;;;21.46;52.04
56668;BME280;42542;48.360;10.958;2023-04-23T15:26:12;95111.09;;;21.35;51.51
56668;BME280;42542;48.360;10.958;2023-04-23T15:29:18;95115.69;;;21.13;50.49
56668;BME280;42542;48.360;10.958;2023-04-23T15:32:23;95104.34;;;21.16;51.33
56668;BME280;42542;48.360;10.958;2023-04-23T15:35:31;95105.81;;;21.23;50.38
56668;BME280;42542;48.360;10.958;2023-04-23T15:38:36;95107.50;;;21.29;50.35
56668;BME280;42542;48.360;10.958;2023-04-23T15:41:38;95108.31;;;21.30;49.64
56668;BME280;42542;48.360;10.958;2023-04-23T15:44:47;95109.00;;;20.98;48.36
56668;BME280;42542;48.360;10.958;2023-04-23T15:47:52;95108.28;;;20.81;49.45
56668;BME280;42542;48.360;10.958;2023-04-23T15:50:55;95112.75;;;20.71;49.81
56668;BME280;42542;48.360;10.958;2023-04-23T15:53:56;95104.16;;;20.57;49.61
56668;BME280;42542;48.360;10.958;2023-04-23T15:57:02;95096.94;;;20.46;50.14
56668;BME280;42542;48.360;10.958;2023-04-23T16:00:05;95087.16;;;20.28;50.61
56668;BME280;42542;48.360;10.958;2023-04-23T16:03:13;95079.94;;;20.17;51.35
56668;BME280;42542;48.360;10.958;2023-04-23T16:06:19;95085.63;;;20.15;51.17
56668;BME280;42542;48.360;10.958;2023-04-23T16:09:22;95080.44;;;19.97;51.37
56668;BME280;42542;48.360;10.958;2023-04-23T16:12:24;95080.31;;;19.87;51.38
56668;BME280;42542;48.360;10.958;2023-04-23T16:15:30;95085.22;;;19.73;51.51
56668;BME280;42542;48.360;10.958;2023-04-23T16:18:33;95094.59;;;19.66;52.24